Latest Coastal Weather Observations for Maatsuyker Island

IDT60701

Issued at 11:21 am EDT Monday 2 February 2015 (issued every 10 minutes, with the page automatically refreshed every 10 minutes)

About coastal observations | Map of coastal stations | Coastal observations for TAS | Marine services | Other Formats
Station Details ID: 094041 Name: MAATSUYKER ISLAND LIGHTHOUSE Lat: -43.66 Lon: 146.27 Height: 146.5 m
Data from the previous 72 hours. | See also: Recent months at Maatsuyker Island
Date/Time
EDT
Temp

°C
Wind Pressure Rain
since 9am
mm
Weather Cloud Vis
km
Sea
Height
m
Swell
Dir
 
Speed
knots
Gust
knots
hPa Trend Height
m
Period
s
Dir
02/11:00am 13.6 WNW 14 17 1021.1 - 0.0 - - - - - - -
02/10:30am 12.6 W 15 19 1021.3 - 0.0 - - - - - - -
02/10:00am 12.2 W 16 22 1021.4 - 0.0 - - - - - - -
02/09:30am 11.8 W 15 19 1020.6 - 0.0 - - - - - - -
02/09:22am 11.7 W 14 21 1020.7 - 0.0 - - - - - - -
02/09:00am 11.9 W 12 23 1019.4 F 0.6 Distant precip. Mostly cloudy 10 <0.5 1.5 14 SE
02/08:30am 12.5 WNW 17 19 1019.4 - 0.6 - - - - - - -
02/08:00am 12.0 NW 17 19 1019.1 - 0.6 - - - - - - -
02/07:30am 11.8 WNW 14 18 1019.2 - 0.6 - - - - - - -
02/07:00am 11.7 WNW 16 19 1018.9 - 0.6 - - - - - - -
02/06:30am 11.5 WNW 16 19 1019.0 - 0.6 - - - - - - -
02/06:00am 11.2 W 7 15 1018.7 F 0.6 Fine Partly cloudy 10 <0.5 1.5 11 SE
02/05:30am 11.3 W 10 14 1018.4 - 0.6 - - - - - - -
02/05:00am 11.2 W 12 15 1018.5 - 0.6 - - - - - - -
02/04:30am 11.2 W 9 13 1018.5 - 0.6 - - - - - - -
02/04:00am 10.8 WSW 10 13 1018.8 - 0.6 - - - - - - -
02/03:30am 11.2 WSW 13 18 1018.9 - 0.6 - - - - - - -
02/03:00am 11.3 WSW 13 17 1018.8 - 0.6 - - - - - - -
02/02:30am 11.3 WSW 10 13 1018.9 - 0.6 - - - - - - -
02/02:00am 11.3 SW 11 16 1019.0 - 0.6 - - - - - - -
02/01:30am 11.4 WSW 12 16 1019.1 - 0.6 - - - - - - -
02/01:00am 11.6 SSW 12 17 1019.2 - 0.6 - - - - - - -
02/12:30am 11.5 WSW 11 15 1019.4 - 0.6 - - - - - - -
02/12:00am 11.5 SSW 17 21 1019.0 - 0.6 - - - - - - -
 
Date/Time
EDT
Temp

°C
Wind Pressure Rain
since 9am
mm
Weather Cloud Vis
km
Sea
Height
m
Swell
Dir
 
Speed
knots
Gust
knots
hPa Trend Height
m
Period
s
Dir
01/11:30pm 11.5 S 17 19 1019.1 - 0.6 - - - - - - -
01/11:00pm 11.5 S 20 23 1018.9 - 0.6 - - - - - - -
01/10:30pm 11.5 S 22 24 1018.9 - 0.6 - - - - - - -
01/10:13pm 11.5 S 22 24 1018.9 - 0.6 - - - - - - -
01/10:00pm 11.2 SSE 15 17 1019.0 - 0.6 - - - - - - -
01/09:30pm 11.1 S 17 21 1018.9 - 0.6 - - - - - - -
01/09:15pm 11.2 SSE 16 22 1018.8 - 0.4 - - - - - - -
01/09:00pm 11.2 NNE 3 8 1018.6 - 0.4 - - - - - - -
01/08:30pm 11.4 S 10 12 1018.6 - 0.2 - - - - - - -
01/08:00pm 11.6 SE 11 14 1018.3 - 0.2 - - - - - - -
01/07:30pm 11.8 N 3 20 1018.1 - 0.2 - - - - - - -
01/07:00pm 12.6 SSE 17 25 1017.6 - 0.2 - - - - - - -
01/06:58pm 12.6 SE 15 22 1017.7 - 0.2 - - - - - - -
01/06:30pm 12.7 N 4 9 1017.6 - 0.2 - - - - - - -
01/06:00pm 12.3 NNE 5 20 1017.3 - 0.2 - - - - - - -
01/05:48pm 12.2 ESE 13 23 1017.3 - 0.2 - - - - - - -
01/05:42pm 12.4 SSE 21 23 1017.3 - 0.2 - - - - - - -
01/05:30pm 13.0 NE 5 13 1017.5 - 0.2 - - - - - - -
01/05:00pm 13.1 E 6 12 1017.3 - 0.2 - - - - - - -
01/04:30pm 13.3 N 3 5 1017.3 - 0.2 - - - - - - -
01/04:00pm 13.8 N 4 8 1017.0 - 0.2 - - - - - - -
01/03:30pm 13.2 E 7 15 1016.9 - 0.0 - - - - - - -
01/03:00pm 13.5 SE 12 10 1017.0 R 0.0 Haze Cloudy 10 <0.5 2.0 12 SE
01/02:30pm 12.7 NNE 5 11 1017.2 - 0.0 - - - - - - -
01/02:00pm 11.8 E 8 20 1017.1 - 0.0 - - - - - - -
01/01:30pm 11.3 SSE 19 24 1017.0 - 0.0 - - - - - - -
01/01:21pm 11.9 S 21 22 1017.0 - 0.0 - - - - - - -
01/01:00pm 12.0 SE 15 19 1017.0 - 0.0 - - - - - - -
01/12:45pm 11.5 SE 15 21 1016.9 - 0.0 - - - - - - -
01/12:30pm 11.9 NNE 5 9 1017.1 - 0.0 - - - - - - -
01/12:00pm 11.9 ESE 9 21 1016.8 - 0.0 - - - - - - -
01/11:59am 11.9 ESE 9 21 1016.9 - 0.0 - - - - - - -
01/11:30am 11.6 SSE 23 26 1016.5 - 0.0 - - - - - - -
01/11:09am 11.3 SSE 20 24 1016.6 - 0.0 - - - - - - -
01/11:00am 11.2 ESE 12 23 1016.6 - 0.0 - - - - - - -
01/10:56am 11.1 ESE 13 23 1016.6 - 0.0 - - - - - - -
01/10:53am 11.1 SSE 20 23 1016.5 - 0.0 - - - - - - -
01/10:30am 11.1 NE 7 23 1016.5 - 0.0 - - - - - - -
01/10:09am 11.3 SSE 16 22 1016.2 - 0.0 - - - - - - -
01/10:00am 11.3 NNE 4 8 1016.2 - 0.0 - - - - - - -
01/09:30am 11.1 SE 15 20 1015.9 - 0.0 - - - - - - -
01/09:00am 10.8 SSE 12 21 1015.6 R 1.2 Drizzle Cloudy 10 1 2.0 14 SE
01/08:30am 10.7 S 17 21 1015.3 - 1.2 - - - - - - -
01/08:00am 10.4 SSE 17 20 1014.9 - 1.2 - - - - - - -
01/07:30am 10.5 SSE 17 22 1014.5 - 1.2 - - - - - - -
01/07:28am 10.5 S 20 22 1014.5 - 1.2 - - - - - - -
01/07:21am 10.4 SE 14 22 1014.7 - 1.2 - - - - - - -
01/07:16am 10.3 SSE 20 22 1014.6 - 1.2 - - - - - - -
01/07:00am 10.5 SE 16 25 1014.4 - 1.2 - - - - - - -
01/06:54am 10.4 ESE 17 26 1014.2 - 1.2 - - - - - - -
01/06:30am 10.4 SSE 22 26 1014.1 - 1.2 - - - - - - -
01/06:00am 10.4 S 20 27 1013.6 F 1.2 Fine Cloudy 5 1 2.0 11 SE
01/05:56am 10.3 S 24 27 1013.7 - 1.2 - - - - - - -
01/05:30am 10.4 SE 19 27 1013.6 - 1.2 - - - - - - -
01/05:27am 10.5 SE 18 27 1013.6 - 1.2 - - - - - - -
01/05:00am 10.8 S 24 28 1013.7 - 1.2 - - - - - - -
01/04:47am 10.7 S 25 27 1013.7 - 1.2 - - - - - - -
01/04:30am 10.8 SE 17 25 1013.8 - 1.2 - - - - - - -
01/04:00am 11.0 S 21 27 1013.7 - 1.2 - - - - - - -
01/03:30am 10.7 S 22 26 1013.9 - 1.2 - - - - - - -
01/03:00am 10.7 SSE 22 25 1013.7 - 1.2 - - - - - - -
01/02:47am 10.8 SSE 22 25 1013.8 - 1.2 - - - - - - -
01/02:44am 11.0 SE 17 23 1013.9 - 1.2 - - - - - - -
01/02:35am 10.7 S 20 22 1013.8 - 1.2 - - - - - - -
01/02:30am 10.9 SE 14 21 1013.9 - 1.2 - - - - - - -
01/02:00am 10.7 SE 13 20 1013.9 - 1.2 - - - - - - -
01/01:30am 11.0 SE 18 23 1014.0 - 1.2 - - - - - - -
01/01:08am 11.1 SE 15 25 1014.0 - 1.2 - - - - - - -
01/01:00am 11.1 ENE 7 17 1014.1 - 1.2 - - - - - - -
01/12:30am 11.2 ESE 13 23 1014.1 - 1.2 - - - - - - -
01/12:00am 11.4 SSE 15 19 1014.3 - 1.2 - - - - - - -
 
Date/Time
EDT
Temp

°C
Wind Pressure Rain
since 9am
mm
Weather Cloud Vis
km
Sea
Height
m
Swell
Dir
 
Speed
knots
Gust
knots
hPa Trend Height
m
Period
s
Dir
31/11:45pm 11.5 SSE 20 21 1014.4 - 1.2 - - - - - - -
31/11:30pm 11.5 E 8 16 1014.5 - 1.2 - - - - - - -
31/11:00pm 11.4 ENE 7 12 1014.7 - 1.2 - - - - - - -
31/10:30pm 11.5 SE 13 19 1014.6 - 1.0 - - - - - - -
31/10:00pm 11.3 SE 14 21 1014.6 - 1.0 - - - - - - -
31/09:30pm 11.3 E 9 17 1014.5 - 1.0 - - - - - - -
31/09:13pm 11.4 ENE 11 27 1013.9 - 1.0 - - - - - - -
31/09:03pm 11.3 SE 21 23 1014.0 - 1.0 - - - - - - -
31/09:00pm 11.3 E 11 19 1013.8 - 1.0 - - - - - - -
31/08:30pm 11.6 NNE 6 15 1014.0 - 0.6 - - - - - - -
31/08:00pm 11.6 ENE 9 19 1013.7 - 0.6 - - - - - - -
31/07:30pm 11.6 ENE 8 19 1013.6 - 0.6 - - - - - - -
31/07:00pm 11.8 E 9 19 1013.5 - 0.2 - - - - - - -
31/06:30pm 12.0 NE 7 20 1013.4 - 0.2 - - - - - - -
31/06:00pm 12.0 NE 8 22 1013.4 - 0.0 - - - - - - -
31/05:53pm 12.1 ESE 17 25 1013.3 - 0.0 - - - - - - -
31/05:44pm 12.3 SSE 21 25 1013.3 - 0.0 - - - - - - -
31/05:30pm 12.1 NNE 7 18 1013.5 - 0.0 - - - - - - -
31/05:13pm 12.1 ESE 14 22 1013.4 - 0.0 - - - - - - -
31/05:00pm 12.0 SSE 21 24 1013.3 - 0.0 - - - - - - -
31/04:58pm 12.1 SSE 20 22 1013.4 - 0.0 - - - - - - -
31/04:30pm 12.2 ESE 13 23 1013.3 - 0.0 - - - - - - -
31/04:00pm 12.1 SE 21 29 1013.0 - 0.0 - - - - - - -
31/03:47pm 12.4 SSE 21 25 1013.0 - 0.0 - - - - - - -
31/03:30pm 12.4 NE 7 23 1013.0 - 0.0 - - - - - - -
31/03:17pm 12.3 ESE 18 28 1013.0 - 0.0 - - - - - - -
31/03:00pm 12.2 SE 16 27 1012.8 R 0.0 Mist Cloudy 5 1 2.0 12 SE
31/02:46pm 12.3 SSE 23 28 1012.8 - 0.0 - - - - - - -
31/02:44pm 12.3 ESE 15 28 1012.8 - 0.0 - - - - - - -
31/02:43pm 12.3 ESE 18 28 1012.8 - 0.0 - - - - - - -
31/02:30pm 12.2 SSE 25 30 1012.7 - 0.0 - - - - - - -
31/02:00pm 12.3 SSE 22 29 1013.0 - 0.0 - - - - - - -
31/01:47pm 12.2 SSE 21 27 1013.1 - 0.0 - - - - - - -
31/01:46pm 12.2 ESE 16 27 1013.1 - 0.0 - - - - - - -
31/01:41pm 12.2 E 14 30 1013.1 - 0.0 - - - - - - -
31/01:30pm 12.1 SSE 27 31 1013.2 - 0.0 - - - - - - -
31/01:00pm 12.3 SSE 27 31 1013.2 - 0.0 - - - - - - -
31/12:32pm 12.2 SE 21 32 1013.2 - 0.0 - - - - - - -
31/12:30pm 12.3 SSE 27 32 1013.1 - 0.0 - - - - - - -
31/12:03pm 12.8 S 26 29 1013.2 - 0.0 - - - - - - -
31/12:00pm 12.7 ESE 20 29 1013.2 - 0.0 - - - - - - -
31/11:47am 12.5 ESE 18 32 1013.2 - 0.0 - - - - - - -
31/11:37am 12.7 S 26 29 1013.3 - 0.0 - - - - - - -
31/11:30am 12.4 SE 22 29 1013.3 - 0.0 - - - - - - -
31/11:12am 12.3 ESE 16 30 1013.5 - 0.0 - - - - - - -
31/11:11am 12.3 E 12 30 1013.5 - 0.0 - - - - - - -
31/11:00am 12.1 SE 23 31 1013.6 - 0.0 - - - - - - -
31/10:38am 12.0 SE 20 31 1013.5 - 0.0 - - - - - - -
31/10:30am 12.0 SSE 23 29 1013.6 - 0.0 - - - - - - -
31/10:00am 11.9 SE 18 29 1013.7 - 0.0 - - - - - - -
31/09:43am 11.9 SE 23 33 1013.7 - 0.0 - - - - - - -
31/09:41am 11.9 SSE 25 33 1013.6 - 0.0 - - - - - - -
31/09:39am 11.9 N 8 32 1013.8 - 0.0 - - - - - - -
31/09:34am 11.9 SE 22 32 1013.6 - 0.0 - - - - - - -
31/09:30am 11.9 NNE 9 26 1013.7 - 0.0 - - - - - - -
31/09:11am 11.7 SE 19 29 1013.8 - 0.0 - - - - - - -
31/09:08am 11.7 SSE 22 29 1013.7 - 0.0 - - - - - - -
31/09:00am 11.7 SE 18 24 1013.7 F 2.4 Mist Cloudy 4 1 2.0 13 SE
31/08:53am 11.7 ESE 15 30 1013.8 - 2.4 - - - - - - -
31/08:49am 11.7 SSE 23 30 1013.7 - 2.4 - - - - - - -
31/08:30am 11.8 ESE 17 30 1013.6 - 2.4 - - - - - - -
31/08:01am 11.4 ESE 17 27 1013.4 - 2.4 - - - - - - -
31/08:00am 11.5 ESE 17 28 1013.4 - 2.4 - - - - - - -
31/07:31am 11.5 ESE 18 28 1013.4 - 2.4 - - - - - - -
31/07:30am 11.5 ESE 19 28 1013.4 - 2.4 - - - - - - -
31/07:05am 11.5 SE 20 31 1013.3 - 2.4 - - - - - - -
31/07:00am 11.5 SE 21 27 1013.4 - 2.4 - - - - - - -
31/06:30am 11.5 ESE 16 28 1013.5 - 2.0 - - - - - - -
31/06:00am 11.6 SE 20 31 1013.2 F 2.0 Mist Cloudy 4 1 2.0 13 SE
31/05:44am 11.7 ESE 15 25 1013.3 - 2.0 - - - - - - -
31/05:30am 11.6 NE 9 18 1013.5 - 2.0 - - - - - - -
31/05:00am 11.3 N 8 24 1013.5 - 2.0 - - - - - - -
31/04:35am 11.5 ESE 15 28 1013.5 - 2.0 - - - - - - -
31/04:30am 11.5 ESE 17 28 1013.5 - 2.0 - - - - - - -
31/04:04am 11.8 SE 19 29 1013.8 - 2.0 - - - - - - -
31/04:01am 11.8 SE 22 29 1013.7 - 2.0 - - - - - - -
31/04:00am 11.8 E 16 28 1013.8 - 2.0 - - - - - - -
31/03:50am 11.7 SE 19 29 1013.8 - 2.0 - - - - - - -
31/03:35am 11.7 SE 22 27 1013.9 - 2.0 - - - - - - -
31/03:34am 11.8 E 16 27 1014.0 - 2.0 - - - - - - -
31/03:30am 11.8 E 12 26 1014.1 - 2.0 - - - - - - -
31/03:02am 11.6 SE 16 26 1014.3 - 2.0 - - - - - - -
31/03:00am 11.6 ENE 9 24 1014.4 - 2.0 - - - - - - -
31/02:30am 11.4 SE 18 34 1014.6 - 1.8 - - - - - - -
31/02:23am 11.6 SE 18 34 1014.3 - 1.6 - - - - - - -
31/02:13am 11.5 SSE 22 27 1014.7 - 1.6 - - - - - - -
31/02:12am 11.5 ESE 15 25 1014.8 - 1.6 - - - - - - -
31/02:00am 11.7 E 16 25 1014.8 - 1.6 - - - - - - -
31/01:44am 11.7 E 15 28 1014.9 - 1.6 - - - - - - -
31/01:40am 11.6 SSE 22 28 1015.0 - 1.6 - - - - - - -
31/01:35am 11.7 ESE 15 27 1015.1 - 1.6 - - - - - - -
31/01:30am 11.7 E 11 22 1015.1 - 1.6 - - - - - - -
31/01:00am 11.6 ENE 10 17 1015.1 - 1.6 - - - - - - -
31/12:30am 11.8 NNE 7 16 1015.4 - 1.6 - - - - - - -
31/12:00am 11.9 ENE 7 17 1015.7 - 1.6 - - - - - - -
 
Date/Time
EDT
Temp

°C
Wind Pressure Rain
since 9am
mm
Weather Cloud Vis
km
Sea
Height
m
Swell
Dir
 
Speed
knots
Gust
knots
hPa Trend Height
m
Period
s
Dir
30/11:30pm 11.8 ENE 10 19 1015.8 - 1.6 - - - - - - -
30/11:00pm 11.8 ESE 13 23 1016.0 - 1.6 - - - - - - -
30/10:47pm 11.7 ESE 15 25 1016.1 - 1.6 - - - - - - -
30/10:30pm 11.8 ESE 13 26 1016.4 - 1.6 - - - - - - -
30/10:00pm 11.7 NNE 8 21 1016.7 - 1.6 - - - - - - -
30/09:51pm 11.7 ESE 15 28 1016.6 - 1.6 - - - - - - -
30/09:30pm 11.8 NNE 8 24 1016.9 - 1.6 - - - - - - -
30/09:00pm 11.8 NNE 7 16 1016.8 - 1.6 - - - - - - -
30/08:30pm 11.9 NNE 8 16 1016.8 - 1.4 - - - - - - -
30/08:00pm 11.9 NNE 8 14 1016.7 - 1.4 - - - - - - -
30/07:30pm 12.0 NNE 7 14 1016.8 - 1.4 - - - - - - -
30/07:00pm 12.2 N 5 7 1017.0 - 1.0 - - - - - - -
30/06:30pm 12.2 N 6 12 1017.2 - 0.8 - - - - - - -
30/06:00pm 12.4 N 5 8 1017.3 - 0.6 - - - - - - -
30/05:30pm 13.5 NNW 5 8 1017.7 - 0.2 - - - - - - -
30/05:00pm 13.7 N 4 6 1017.8 - 0.2 - - - - - - -
30/04:30pm 14.4 NNW 4 7 1017.9 - 0.2 - - - - - - -
30/04:00pm 14.8 NNW 5 6 1018.2 - 0.2 - - - - - - -
30/03:30pm 14.8 NNW 4 5 1018.4 - 0.2 - - - - - - -
30/03:00pm 15.4 SE 15 7 1018.6 F 0.2 Distant precip. Mostly cloudy 10 1 1.5 13 SE
30/02:30pm 14.2 NNW 4 7 1019.0 - 0.2 - - - - - - -
30/02:00pm 14.8 N 5 8 1019.0 - 0.2 - - - - - - -
30/01:30pm 14.0 NNW 5 9 1019.1 - 0.0 - - - - - - -
30/01:00pm 13.8 NNW 5 6 1019.3 - 0.0 - - - - - - -
30/12:30pm 13.4 NNW 5 7 1019.5 - 0.0 - - - - - - -
30/12:00pm 13.5 NNW 5 8 1019.6 - 0.0 - - - - - - -
30/11:30am 13.4 NNW 5 9 1019.8 - 0.0 - - - - - - -

Other Formats:

Comma delimited format used in spreadsheet applications
http://www.bom.gov.au/fwo/IDT60701/IDT60701.94962.axf

JavaScript Object Notation format (JSON) in row-major order
http://www.bom.gov.au/fwo/IDT60701/IDT60701.94962.json